createdAt,value
2023-04-27T00:01:30.404Z,100.00
2023-04-27T00:04:01.703Z,100.00
2023-04-27T00:06:33.429Z,100.00
2023-04-27T00:09:05.590Z,100.00
2023-04-27T00:11:36.694Z,100.00
2023-04-27T00:14:09.668Z,100.00
2023-04-27T00:16:39.981Z,100.00
2023-04-27T00:19:12.226Z,100.00
2023-04-27T00:21:45.062Z,100.00
2023-04-27T00:24:19.340Z,100.00
2023-04-27T00:26:52.320Z,100.00
2023-04-27T00:29:28.228Z,100.00
2023-04-27T00:32:01.258Z,100.00
2023-04-27T00:34:32.412Z,100.00
2023-04-27T00:37:03.394Z,100.00
2023-04-27T00:39:37.937Z,100.00
2023-04-27T00:42:12.950Z,100.00
2023-04-27T00:44:47.289Z,100.00
2023-04-27T00:47:24.593Z,100.00
2023-04-27T00:49:58.494Z,100.00
2023-04-27T00:52:33.499Z,100.00
2023-04-27T00:55:08.728Z,100.00
2023-04-27T00:57:49.141Z,100.00
2023-04-27T01:00:23.005Z,100.00
2023-04-27T01:02:57.565Z,100.00
2023-04-27T01:05:32.500Z,100.00
2023-04-27T01:08:05.462Z,100.00
2023-04-27T01:10:38.111Z,100.00
2023-04-27T01:13:08.335Z,100.00
2023-04-27T01:15:44.167Z,100.00
2023-04-27T01:18:16.912Z,100.00
2023-04-27T01:20:47.998Z,100.00
2023-04-27T01:23:21.497Z,100.00
2023-04-27T01:25:54.103Z,100.00
2023-04-27T01:28:26.023Z,100.00
2023-04-27T01:30:57.428Z,100.00
2023-04-27T01:33:31.368Z,100.00
2023-04-27T01:36:05.821Z,100.00
2023-04-27T01:38:38.516Z,100.00
2023-04-27T01:41:10.559Z,100.00
2023-04-27T01:43:44.542Z,100.00
2023-04-27T01:46:15.128Z,100.00
2023-04-27T01:48:46.441Z,100.00
2023-04-27T01:51:17.811Z,100.00
2023-04-27T01:53:49.128Z,100.00
2023-04-27T01:56:22.243Z,100.00
2023-04-27T01:58:56.834Z,100.00
2023-04-27T02:01:28.901Z,100.00
2023-04-27T02:04:01.205Z,100.00
2023-04-27T02:06:33.500Z,100.00
2023-04-27T02:09:03.435Z,100.00
2023-04-27T02:11:32.799Z,100.00
2023-04-27T02:14:02.475Z,100.00
2023-04-27T02:16:37.987Z,100.00
2023-04-27T02:19:09.604Z,100.00
2023-04-27T02:21:42.660Z,100.00
2023-04-27T02:24:14.786Z,100.00
2023-04-27T02:26:49.945Z,100.00
2023-04-27T02:29:20.889Z,100.00
2023-04-27T02:31:52.195Z,100.00
2023-04-27T02:34:23.612Z,100.00
2023-04-27T02:36:54.633Z,100.00
2023-04-27T02:39:24.482Z,100.00
2023-04-27T02:41:54.754Z,100.00
2023-04-27T02:44:25.194Z,100.00
2023-04-27T02:46:55.086Z,100.00
2023-04-27T02:49:24.643Z,100.00
2023-04-27T02:51:54.736Z,100.00
2023-04-27T02:54:24.897Z,100.00
2023-04-27T02:56:54.431Z,100.00
2023-04-27T02:59:25.442Z,100.00
2023-04-27T03:01:55.978Z,100.00
2023-04-27T03:04:27.051Z,100.00
2023-04-27T03:06:57.471Z,100.00
2023-04-27T03:09:26.829Z,100.00
2023-04-27T03:11:57.294Z,100.00
2023-04-27T03:14:27.273Z,100.00
2023-04-27T03:16:57.910Z,100.00
2023-04-27T03:19:27.817Z,100.00
2023-04-27T03:21:57.529Z,100.00
2023-04-27T03:24:28.201Z,100.00
2023-04-27T03:26:58.824Z,100.00
2023-04-27T03:29:28.460Z,100.00
2023-04-27T03:31:58.872Z,100.00
2023-04-27T03:34:28.194Z,100.00
2023-04-27T03:36:58.732Z,100.00
2023-04-27T03:39:28.688Z,100.00
2023-04-27T03:41:59.950Z,100.00
2023-04-27T03:44:28.898Z,100.00
2023-04-27T03:46:58.610Z,100.00
2023-04-27T03:49:28.443Z,100.00
2023-04-27T03:51:59.048Z,100.00
2023-04-27T03:54:28.760Z,100.00
2023-04-27T03:56:58.087Z,100.00
2023-04-27T03:59:29.813Z,100.00
2023-04-27T04:02:01.306Z,100.00
2023-04-27T04:04:31.576Z,100.00
2023-04-27T04:07:00.779Z,100.00
2023-04-27T04:09:30.604Z,100.00
2023-04-27T04:11:59.281Z,100.00
2023-04-27T04:14:28.998Z,100.00
2023-04-27T04:17:00.620Z,100.00
2023-04-27T04:19:30.454Z,100.00
2023-04-27T04:21:59.669Z,100.00
2023-04-27T04:24:28.653Z,100.00
2023-04-27T04:26:58.983Z,100.00
2023-04-27T04:29:29.077Z,100.00
2023-04-27T04:31:57.902Z,100.00
2023-04-27T04:34:27.918Z,100.00
2023-04-27T04:37:00.730Z,100.00
2023-04-27T04:39:32.949Z,100.00
2023-04-27T04:42:01.945Z,100.00
2023-04-27T04:44:32.578Z,100.00
2023-04-27T04:47:02.305Z,100.00
2023-04-27T04:49:31.336Z,100.00
2023-04-27T04:52:00.269Z,100.00
2023-04-27T04:54:29.173Z,100.00
2023-04-27T04:56:59.692Z,100.00
2023-04-27T04:59:30.359Z,100.00
2023-04-27T05:02:01.655Z,100.00
2023-04-27T05:04:30.923Z,100.00
2023-04-27T05:07:00.581Z,100.00
2023-04-27T05:09:29.875Z,100.00
2023-04-27T05:11:59.241Z,100.00
2023-04-27T05:14:28.277Z,100.00
2023-04-27T05:16:57.566Z,99.38
2023-04-27T05:19:29.027Z,92.15
2023-04-27T05:21:59.313Z,89.60
2023-04-27T05:24:28.374Z,84.34
2023-04-27T05:26:57.229Z,89.21
2023-04-27T05:29:26.328Z,86.32
2023-04-27T05:31:56.170Z,87.11
2023-04-27T05:34:25.222Z,86.56
2023-04-27T05:36:54.731Z,79.65
2023-04-27T05:39:23.744Z,77.13
2023-04-27T05:41:54.356Z,77.17
2023-04-27T05:44:25.826Z,75.55
2023-04-27T05:46:55.331Z,78.22
2023-04-27T05:49:24.823Z,78.05
2023-04-27T05:51:54.317Z,70.19
2023-04-27T05:54:22.995Z,71.07
2023-04-27T05:56:52.508Z,68.32
2023-04-27T05:59:22.337Z,66.46
2023-04-27T06:01:51.333Z,68.35
2023-04-27T06:04:20.126Z,65.46
2023-04-27T06:06:49.945Z,64.71
2023-04-27T06:09:19.436Z,66.73
2023-04-27T06:11:48.427Z,64.47
2023-04-27T06:14:18.252Z,58.97
2023-04-27T06:16:47.325Z,59.13
2023-04-27T06:19:16.942Z,60.36
2023-04-27T06:21:46.048Z,55.20
2023-04-27T06:24:16.350Z,57.82
2023-04-27T06:26:45.542Z,60.39
2023-04-27T06:29:14.833Z,58.75
2023-04-27T06:31:46.930Z,56.20
2023-04-27T06:34:18.870Z,55.43
2023-04-27T06:36:47.757Z,54.43
2023-04-27T06:39:17.290Z,55.99
2023-04-27T06:41:46.572Z,56.32
2023-04-27T06:44:20.573Z,52.81
2023-04-27T06:46:49.889Z,53.26
2023-04-27T06:49:19.729Z,54.40
2023-04-27T06:51:49.986Z,54.49
2023-04-27T06:54:19.528Z,53.72
2023-04-27T06:56:48.603Z,52.06
2023-04-27T06:59:17.723Z,53.28
2023-04-27T07:01:47.257Z,51.13
2023-04-27T07:04:16.411Z,51.51
2023-04-27T07:06:45.297Z,51.34
2023-04-27T07:09:26.655Z,49.68
2023-04-27T07:11:56.182Z,49.82
2023-04-27T07:14:25.087Z,47.06
2023-04-27T07:16:53.862Z,48.78
2023-04-27T07:19:23.065Z,48.06
2023-04-27T07:21:52.348Z,48.45
2023-04-27T07:24:21.409Z,49.80
2023-04-27T07:26:50.452Z,47.51
2023-04-27T07:29:26.401Z,48.02
2023-04-27T07:31:56.600Z,49.46
2023-04-27T07:34:25.534Z,48.92
2023-04-27T07:36:54.753Z,48.33
2023-04-27T07:39:26.387Z,48.39
2023-04-27T07:41:55.365Z,46.53
2023-04-27T07:44:24.371Z,45.47
2023-04-27T07:46:55.052Z,45.08
2023-04-27T07:49:25.285Z,45.84
2023-04-27T07:51:54.222Z,41.94
2023-04-27T07:54:23.086Z,42.96
2023-04-27T07:56:52.179Z,43.21
2023-04-27T07:59:21.287Z,40.92
2023-04-27T08:01:50.299Z,41.74
2023-04-27T08:04:20.077Z,40.22
2023-04-27T08:06:49.647Z,41.44
2023-04-27T08:09:18.684Z,37.75
2023-04-27T08:11:48.803Z,38.45
2023-04-27T08:14:17.621Z,37.67
2023-04-27T08:16:46.620Z,38.13
2023-04-27T08:19:16.515Z,39.22
2023-04-27T08:21:45.391Z,39.87
2023-04-27T08:24:14.392Z,38.57
2023-04-27T08:26:43.677Z,39.12
2023-04-27T08:29:26.338Z,38.68
2023-04-27T08:31:59.982Z,39.36
2023-04-27T08:34:29.564Z,40.06
2023-04-27T08:36:58.822Z,40.91
2023-04-27T08:39:28.407Z,39.31
2023-04-27T08:41:57.307Z,38.72
2023-04-27T08:44:26.612Z,37.82
2023-04-27T08:46:55.798Z,37.68
2023-04-27T08:49:25.845Z,38.83
2023-04-27T08:51:54.599Z,38.44
2023-04-27T08:54:23.395Z,36.69
2023-04-27T08:56:52.585Z,37.06
2023-04-27T08:59:21.583Z,36.11
2023-04-27T09:01:51.615Z,36.01
2023-04-27T09:04:20.544Z,37.33
2023-04-27T09:06:51.216Z,36.43
2023-04-27T09:09:24.466Z,37.86
2023-04-27T09:11:53.215Z,39.55
2023-04-27T09:14:24.446Z,40.84
2023-04-27T09:17:00.560Z,41.20
2023-04-27T09:19:30.962Z,40.14
2023-04-27T09:22:11.582Z,39.25
2023-04-27T09:24:51.432Z,38.04
2023-04-27T09:27:22.472Z,37.63
2023-04-27T09:29:52.255Z,36.50
2023-04-27T09:32:21.336Z,37.55
2023-04-27T09:34:49.976Z,36.98
2023-04-27T09:37:19.882Z,36.74
2023-04-27T09:39:50.523Z,36.33
2023-04-27T09:42:19.456Z,37.48
2023-04-27T09:44:48.822Z,37.84
2023-04-27T09:47:17.597Z,38.22
2023-04-27T09:49:48.023Z,36.56
2023-04-27T09:52:16.717Z,35.54
2023-04-27T09:54:46.897Z,36.17
2023-04-27T09:57:30.984Z,35.74
2023-04-27T10:00:16.872Z,35.41
2023-04-27T10:02:56.660Z,34.97
2023-04-27T10:05:43.018Z,35.88
2023-04-27T10:08:12.610Z,36.68
2023-04-27T10:10:50.825Z,37.73
2023-04-27T10:13:27.349Z,38.63
2023-04-27T10:15:56.992Z,38.73
2023-04-27T10:18:28.615Z,38.99
2023-04-27T10:21:09.734Z,39.31
2023-04-27T10:23:51.407Z,40.36
2023-04-27T10:26:28.006Z,40.44
2023-04-27T10:29:07.631Z,40.25
2023-04-27T10:31:36.554Z,39.32
2023-04-27T10:34:10.617Z,37.46
2023-04-27T10:36:41.441Z,37.28
2023-04-27T10:39:30.033Z,37.03
2023-04-27T10:42:06.535Z,37.50
2023-04-27T10:44:37.278Z,36.97
2023-04-27T10:47:20.317Z,36.76
2023-04-27T10:49:52.967Z,37.75
2023-04-27T10:52:22.543Z,37.91
2023-04-27T10:54:51.486Z,38.70
2023-04-27T10:57:20.212Z,38.69
2023-04-27T10:59:55.880Z,38.31
2023-04-27T11:02:29.572Z,37.26
2023-04-27T11:04:59.018Z,38.53
2023-04-27T11:07:29.711Z,38.03
2023-04-27T11:09:58.449Z,37.68
2023-04-27T11:12:27.460Z,37.85
2023-04-27T11:14:59.840Z,36.42
2023-04-27T11:17:32.883Z,37.39
2023-04-27T11:20:01.429Z,36.87
2023-04-27T11:22:30.244Z,36.12
2023-04-27T11:24:59.413Z,36.49
2023-04-27T11:27:38.959Z,36.41
2023-04-27T11:30:20.452Z,38.36
2023-04-27T11:32:50.416Z,38.21
2023-04-27T11:35:19.460Z,38.49
2023-04-27T11:37:58.795Z,38.92
2023-04-27T11:40:29.141Z,38.89
2023-04-27T11:43:04.652Z,39.67
2023-04-27T11:45:33.237Z,39.64
2023-04-27T11:48:02.251Z,40.14
2023-04-27T11:50:31.481Z,40.40
2023-04-27T11:53:02.092Z,39.41
2023-04-27T11:55:31.663Z,39.23
2023-04-27T11:58:00.764Z,39.40
2023-04-27T12:00:29.782Z,38.46
2023-04-27T12:02:58.919Z,38.45
2023-04-27T12:05:28.561Z,37.64
2023-04-27T12:07:57.757Z,38.01
2023-04-27T12:10:26.857Z,38.81
2023-04-27T12:12:56.454Z,38.42
2023-04-27T12:15:25.137Z,38.28
2023-04-27T12:17:54.081Z,38.68
2023-04-27T12:20:22.976Z,37.74
2023-04-27T12:22:52.124Z,37.69
2023-04-27T12:25:22.171Z,37.37
2023-04-27T12:27:51.242Z,36.83
2023-04-27T12:30:22.313Z,35.58
2023-04-27T12:32:51.728Z,35.91
2023-04-27T12:35:20.464Z,34.26
2023-04-27T12:37:50.484Z,35.76
2023-04-27T12:40:19.380Z,33.56
2023-04-27T12:42:48.683Z,33.91
2023-04-27T12:45:17.777Z,34.65
2023-04-27T12:48:01.153Z,32.11
2023-04-27T12:50:38.295Z,32.49
2023-04-27T12:53:06.861Z,33.78
2023-04-27T12:55:37.092Z,32.71
2023-04-27T12:58:05.863Z,32.48
2023-04-27T13:00:34.839Z,32.37
2023-04-27T13:03:04.917Z,33.86
2023-04-27T13:05:33.971Z,33.41
2023-04-27T13:08:02.673Z,33.66
2023-04-27T13:10:32.068Z,33.48
2023-04-27T13:13:01.667Z,33.73
2023-04-27T13:15:30.265Z,34.58
2023-04-27T13:17:59.400Z,34.95
2023-04-27T13:20:28.156Z,35.08
2023-04-27T13:22:57.657Z,36.18
2023-04-27T13:25:27.475Z,35.56
2023-04-27T13:27:58.508Z,34.78
2023-04-27T13:30:27.391Z,34.68
2023-04-27T13:33:04.394Z,34.54
2023-04-27T13:35:39.922Z,34.32
2023-04-27T13:38:08.896Z,34.12
2023-04-27T13:40:37.690Z,35.21
2023-04-27T13:43:06.372Z,35.94
2023-04-27T13:45:35.268Z,35.54
2023-04-27T13:48:04.529Z,35.51
2023-04-27T13:50:33.773Z,35.30
2023-04-27T13:53:03.184Z,35.43
2023-04-27T13:55:31.858Z,35.16
2023-04-27T13:58:01.158Z,35.31
2023-04-27T14:00:33.760Z,34.91
2023-04-27T14:03:04.815Z,35.12
2023-04-27T14:05:34.064Z,34.98
2023-04-27T14:08:02.950Z,35.72
2023-04-27T14:10:31.654Z,35.70
2023-04-27T14:13:00.432Z,36.58
2023-04-27T14:15:29.636Z,37.63
2023-04-27T14:17:58.686Z,38.17
2023-04-27T14:20:28.459Z,37.75
2023-04-27T14:22:58.624Z,37.86
2023-04-27T14:25:32.981Z,37.65
2023-04-27T14:28:05.386Z,38.29
2023-04-27T14:30:35.514Z,38.81
2023-04-27T14:33:04.514Z,38.48
2023-04-27T14:35:35.879Z,38.29
2023-04-27T14:38:04.797Z,38.70
2023-04-27T14:40:33.491Z,38.75
2023-04-27T14:43:02.582Z,38.24
2023-04-27T14:45:40.116Z,38.49
2023-04-27T14:48:16.851Z,39.10
2023-04-27T14:50:45.946Z,38.89
2023-04-27T14:53:14.525Z,38.70
2023-04-27T14:55:46.287Z,39.26
2023-04-27T14:58:15.717Z,39.36
2023-04-27T15:00:44.382Z,39.40
2023-04-27T15:03:13.851Z,38.98
2023-04-27T15:05:44.345Z,40.05
2023-04-27T15:08:12.986Z,40.12
2023-04-27T15:10:42.189Z,40.13
2023-04-27T15:13:10.979Z,40.49
2023-04-27T15:15:40.001Z,40.70
2023-04-27T15:18:09.708Z,39.52
2023-04-27T15:20:38.972Z,40.19
2023-04-27T15:23:07.499Z,40.58
2023-04-27T15:25:37.161Z,40.24
2023-04-27T15:28:05.747Z,40.52
2023-04-27T15:30:35.152Z,41.06
2023-04-27T15:33:03.930Z,40.78
2023-04-27T15:35:32.947Z,40.14
2023-04-27T15:38:01.521Z,39.64
2023-04-27T15:40:32.763Z,40.61
2023-04-27T15:43:02.053Z,40.67
2023-04-27T15:45:30.949Z,40.90
2023-04-27T15:47:59.875Z,41.52
2023-04-27T15:50:28.644Z,42.70
2023-04-27T15:52:57.717Z,42.39
2023-04-27T15:55:26.722Z,42.36
2023-04-27T15:57:55.407Z,42.75
2023-04-27T16:00:25.107Z,42.56
2023-04-27T16:02:54.987Z,42.27
2023-04-27T16:05:24.130Z,42.06
2023-04-27T16:07:52.954Z,42.55
2023-04-27T16:10:21.588Z,41.87
2023-04-27T16:12:50.604Z,42.33
2023-04-27T16:15:19.141Z,42.41
2023-04-27T16:17:47.890Z,43.16
2023-04-27T16:20:16.757Z,43.44
2023-04-27T16:22:46.005Z,43.71
2023-04-27T16:25:14.905Z,43.80
2023-04-27T16:27:44.234Z,44.21
2023-04-27T16:30:14.967Z,44.77
2023-04-27T16:32:43.765Z,45.61
2023-04-27T16:35:12.750Z,45.50
2023-04-27T16:37:41.442Z,47.15
2023-04-27T16:40:11.052Z,46.39
2023-04-27T16:42:39.729Z,47.95
2023-04-27T16:45:10.731Z,47.82
2023-04-27T16:47:39.964Z,48.70
2023-04-27T16:50:09.160Z,49.09
2023-04-27T16:52:37.741Z,47.92
2023-04-27T16:55:07.251Z,48.06
2023-04-27T16:57:36.144Z,48.57
2023-04-27T17:00:06.720Z,50.34
2023-04-27T17:02:37.265Z,50.59
2023-04-27T17:05:06.879Z,50.79
2023-04-27T17:07:36.000Z,51.81
2023-04-27T17:10:10.493Z,52.33
2023-04-27T17:12:39.741Z,52.45
2023-04-27T17:15:11.030Z,53.26
2023-04-27T17:17:42.157Z,53.25
2023-04-27T17:20:12.076Z,52.31
2023-04-27T17:22:40.808Z,54.23
2023-04-27T17:25:10.009Z,54.24
2023-04-27T17:27:39.579Z,55.41
2023-04-27T17:30:09.787Z,54.44
2023-04-27T17:32:38.458Z,53.46
2023-04-27T17:35:08.130Z,53.66
2023-04-27T17:37:38.251Z,54.81
2023-04-27T17:40:10.212Z,54.89
2023-04-27T17:42:39.206Z,54.43
2023-04-27T17:45:08.919Z,55.35
2023-04-27T17:47:37.910Z,55.25
2023-04-27T17:50:07.332Z,55.08
2023-04-27T17:52:36.715Z,55.27
2023-04-27T17:55:05.703Z,55.13
2023-04-27T17:57:34.306Z,55.42
2023-04-27T18:00:03.101Z,55.11
2023-04-27T18:02:39.298Z,56.42
2023-04-27T18:05:08.751Z,56.34
2023-04-27T18:07:37.919Z,56.48
2023-04-27T18:10:09.911Z,56.28
2023-04-27T18:12:38.385Z,56.13
2023-04-27T18:15:09.710Z,55.67
2023-04-27T18:17:39.178Z,57.64
2023-04-27T18:20:10.118Z,56.71
2023-04-27T18:22:40.473Z,57.50
2023-04-27T18:25:10.520Z,57.63
2023-04-27T18:27:39.437Z,57.72
2023-04-27T18:30:08.743Z,57.77
2023-04-27T18:32:37.907Z,57.43
2023-04-27T18:35:07.303Z,57.43
2023-04-27T18:37:35.801Z,57.24
2023-04-27T18:40:06.178Z,57.22
2023-04-27T18:42:34.712Z,58.04
2023-04-27T18:45:03.991Z,57.39
2023-04-27T18:47:32.796Z,58.71
2023-04-27T18:50:01.403Z,57.92
2023-04-27T18:52:30.557Z,59.06
2023-04-27T18:54:59.140Z,59.64
2023-04-27T18:57:27.941Z,58.68
2023-04-27T18:59:56.727Z,58.74
2023-04-27T19:02:26.223Z,61.15
2023-04-27T19:05:11.028Z,59.88
2023-04-27T19:07:41.922Z,58.99
2023-04-27T19:10:11.937Z,60.91
2023-04-27T19:12:40.724Z,61.62
2023-04-27T19:15:10.144Z,61.43
2023-04-27T19:17:38.957Z,59.95
2023-04-27T19:20:09.295Z,60.18
2023-04-27T19:22:37.954Z,61.75
2023-04-27T19:25:08.144Z,60.71
2023-04-27T19:27:36.844Z,60.19
2023-04-27T19:30:06.644Z,60.07
2023-04-27T19:32:35.257Z,60.10
2023-04-27T19:35:04.959Z,59.59
2023-04-27T19:37:38.035Z,59.56
2023-04-27T19:40:09.074Z,59.83
2023-04-27T19:42:38.061Z,60.15
2023-04-27T19:45:08.314Z,60.07
2023-04-27T19:47:37.223Z,59.88
2023-04-27T19:50:06.995Z,59.56
2023-04-27T19:52:35.565Z,59.60
2023-04-27T19:55:04.817Z,62.29
2023-04-27T19:57:33.613Z,64.16
2023-04-27T20:00:05.272Z,64.91
2023-04-27T20:02:42.039Z,63.15
2023-04-27T20:05:11.632Z,63.88
2023-04-27T20:07:40.293Z,63.40
2023-04-27T20:10:09.914Z,64.04
2023-04-27T20:12:54.472Z,64.55
2023-04-27T20:15:26.054Z,63.01
2023-04-27T20:17:55.167Z,67.82
2023-04-27T20:20:24.086Z,67.94
2023-04-27T20:22:52.929Z,69.19
2023-04-27T20:25:22.372Z,66.39
2023-04-27T20:27:51.591Z,64.51
2023-04-27T20:30:20.460Z,65.80
2023-04-27T20:32:49.062Z,69.75
2023-04-27T20:35:17.744Z,69.14
2023-04-27T20:37:47.442Z,69.95
2023-04-27T20:40:18.281Z,71.91
2023-04-27T20:42:49.763Z,67.27
2023-04-27T20:45:19.234Z,69.29
2023-04-27T20:47:47.959Z,71.10
2023-04-27T20:50:17.011Z,71.87
2023-04-27T20:52:46.617Z,72.58
2023-04-27T20:55:15.722Z,73.02
2023-04-27T20:57:44.414Z,73.37
2023-04-27T21:00:15.591Z,73.00
2023-04-27T21:02:44.259Z,73.41
2023-04-27T21:05:13.121Z,74.15
2023-04-27T21:07:43.147Z,74.53
2023-04-27T21:10:13.095Z,74.44
2023-04-27T21:12:41.942Z,74.76
2023-04-27T21:15:11.249Z,74.72
2023-04-27T21:17:40.466Z,74.86
2023-04-27T21:20:10.942Z,74.89
2023-04-27T21:22:40.076Z,74.33
2023-04-27T21:25:09.569Z,71.52
2023-04-27T21:27:38.256Z,69.66
2023-04-27T21:30:08.405Z,69.16
2023-04-27T21:32:37.488Z,69.97
2023-04-27T21:35:08.147Z,69.60
2023-04-27T21:37:37.202Z,70.66
2023-04-27T21:40:07.221Z,70.48
2023-04-27T21:42:36.519Z,70.54
2023-04-27T21:45:05.816Z,70.66
2023-04-27T21:47:34.829Z,69.80
2023-04-27T21:50:04.520Z,69.60
2023-04-27T21:52:34.504Z,68.45
2023-04-27T21:55:03.943Z,68.34
2023-04-27T21:57:33.952Z,70.90
2023-04-27T22:00:09.095Z,70.34
2023-04-27T22:02:47.163Z,70.04
2023-04-27T22:05:16.723Z,69.10
2023-04-27T22:07:48.102Z,69.66
2023-04-27T22:10:17.182Z,68.86
2023-04-27T22:12:47.463Z,68.51
2023-04-27T22:15:17.091Z,69.93
2023-04-27T22:17:46.223Z,68.71
2023-04-27T22:20:16.691Z,70.26
2023-04-27T22:22:46.614Z,72.44
2023-04-27T22:25:15.829Z,73.06
2023-04-27T22:27:46.240Z,76.05
2023-04-27T22:30:15.853Z,73.39
2023-04-27T22:32:45.303Z,71.28
2023-04-27T22:35:25.514Z,70.18
2023-04-27T22:37:57.465Z,71.02
2023-04-27T22:40:26.672Z,69.42
2023-04-27T22:42:56.991Z,71.04
2023-04-27T22:45:26.303Z,75.01
2023-04-27T22:47:56.460Z,76.36
2023-04-27T22:50:25.614Z,76.11
2023-04-27T22:52:54.301Z,76.91
2023-04-27T22:55:23.900Z,76.53
2023-04-27T22:57:54.202Z,78.72
2023-04-27T23:00:23.113Z,79.96
2023-04-27T23:02:53.048Z,76.94
2023-04-27T23:05:22.870Z,73.81
2023-04-27T23:07:53.204Z,72.37
2023-04-27T23:10:24.259Z,73.57
2023-04-27T23:12:55.254Z,75.50
2023-04-27T23:15:25.391Z,77.96
2023-04-27T23:17:54.529Z,77.59
2023-04-27T23:20:28.637Z,75.38
2023-04-27T23:22:59.628Z,74.46
2023-04-27T23:25:29.294Z,74.93
2023-04-27T23:27:59.039Z,76.15
2023-04-27T23:30:30.276Z,78.35
2023-04-27T23:33:00.506Z,80.96
2023-04-27T23:35:30.477Z,83.35
2023-04-27T23:38:00.367Z,81.57
2023-04-27T23:40:29.526Z,84.53
2023-04-27T23:42:58.742Z,83.67
2023-04-27T23:45:29.457Z,83.43
2023-04-27T23:48:00.162Z,82.77
2023-04-27T23:50:30.814Z,81.97
2023-04-27T23:53:01.325Z,82.42
2023-04-27T23:55:31.846Z,85.48
2023-04-27T23:58:02.006Z,84.54
